Time;durP1;ratioP1;P1;durP2;ratioP2;P2;SDS_P1;SDS_P2;PMS_P1;PMS_P2;Temp;Humidity;BMP_temperature;BMP_pressure;BME280_temperature;BME280_humidity;BME280_pressure;Samples;Min_cycle;Max_cycle;Signal;HPM_P1;HPM_P2
2021/03/29 16:05:01;;;;;;;;;36.00;31.30;;;;;9.80;75.77;101758.11;465710;108;412951;-71
2021/03/29 16:06:05;;;;;;;;;35.50;31.20;;;;;9.71;77.07;101757.75;448190;122;384435;-69
2021/03/29 16:07:09;;;;;;;;;37.20;32.90;;;;;9.73;75.93;101761.20;448113;122;386787;-70
2021/03/29 16:08:13;;;;;;;;;33.00;29.00;;;;;9.73;75.93;101761.20;448139;122;385318;-68
2021/03/29 16:09:17;;;;;;;;;38.50;32.50;;;;;9.77;75.73;101757.41;447784;122;386686;-67
2021/03/29 16:10:21;;;;;;;;;34.50;33.30;;;;;9.77;75.73;101757.41;447668;122;386795;-66
2021/03/29 16:11:25;;;;;;;;;30.60;28.50;;;;;9.81;76.34;101756.31;447802;122;384733;-67
2021/03/29 16:12:29;;;;;;;;;32.90;30.50;;;;;9.79;76.19;101755.55;447759;122;386107;-65
2021/03/29 16:13:33;;;;;;;;;32.90;29.00;;;;;9.80;74.96;101757.25;447508;122;384317;-64
2021/03/29 16:14:37;;;;;;;;;35.40;30.00;;;;;9.82;74.73;101758.05;447739;122;384172;-66
2021/03/29 16:15:41;;;;;;;;;30.50;26.60;;;;;9.83;74.95;101754.42;447743;122;385222;-66
2021/03/29 16:16:45;;;;;;;;;33.60;30.90;;;;;9.86;74.96;101759.61;447679;122;385973;-68
2021/03/29 16:17:49;;;;;;;;;34.90;32.10;;;;;9.90;76.05;101763.79;447676;122;386000;-65
2021/03/29 16:18:53;;;;;;;;;35.70;33.80;;;;;9.90;76.05;101763.79;447754;122;386014;-65
2021/03/29 16:19:56;;;;;;;;;37.90;33.50;;;;;9.90;76.77;101754.02;447236;122;386440;-66
2021/03/29 16:21:00;;;;;;;;;38.50;32.70;;;;;9.90;75.57;101747.84;447700;122;387045;-67
2021/03/29 16:22:04;;;;;;;;;35.40;33.30;;;;;9.85;74.90;101750.77;447682;122;386256;-69
2021/03/29 16:23:08;;;;;;;;;38.90;35.60;;;;;9.85;74.90;101750.77;447694;122;386376;-68
2021/03/29 16:24:17;;;;;;;;;37.80;34.20;;;;;9.82;75.78;101753.59;447405;122;386974;-67
2021/03/29 16:25:23;;;;;;;;;38.10;31.30;;;;;9.88;77.78;101755.92;447180;122;385746;-68
2021/03/29 16:26:27;;;;;;;;;37.80;32.40;;;;;9.88;77.78;101755.92;446280;122;384674;-64
2021/03/29 16:27:30;;;;;;;;;36.50;34.20;;;;;9.90;77.61;101753.16;444867;122;385916;-70
2021/03/29 16:28:35;;;;;;;;;37.82;34.82;;;;;9.92;76.56;101756.61;437198;122;387508;-67
2021/03/29 16:29:39;;;;;;;;;37.60;35.20;;;;;9.93;78.59;101750.33;452370;120;385499;-67
2021/03/29 16:30:43;;;;;;;;;40.10;35.90;;;;;9.93;78.59;101750.33;453472;120;386286;-65
2021/03/29 16:31:47;;;;;;;;;42.60;34.70;;;;;9.92;78.25;101756.61;447951;120;386240;-68
2021/03/29 16:32:51;;;;;;;;;39.90;36.20;;;;;9.91;78.09;101752.23;451770;120;387026;-68
2021/03/29 16:33:55;;;;;;;;;44.90;39.50;;;;;9.91;76.64;101746.91;453613;120;386856;-67
2021/03/29 16:34:58;;;;;;;;;51.50;40.90;;;;;9.92;75.58;101752.13;453632;120;386612;-67
2021/03/29 16:36:03;;;;;;;;;44.20;36.60;;;;;9.93;76.22;101745.87;453624;120;391424;-67
2021/03/29 16:37:07;;;;;;;;;49.60;41.30;;;;;9.93;76.38;101745.02;452982;120;387204;-66
2021/03/29 16:38:11;;;;;;;;;49.40;40.70;;;;;9.92;76.26;101751.30;453648;120;386349;-66
2021/03/29 16:39:15;;;;;;;;;50.30;39.10;;;;;9.91;75.43;101746.91;453361;120;388714;-68
2021/03/29 16:40:20;;;;;;;;;48.00;39.50;;;;;9.93;74.37;101752.99;453598;120;385364;-66
2021/03/29 16:41:24;;;;;;;;;48.60;40.20;;;;;9.96;75.11;101755.48;452693;120;387797;-68
2021/03/29 16:42:28;;;;;;;;;45.80;39.50;;;;;9.96;75.11;101755.48;453636;120;384934;-68
2021/03/29 16:43:33;;;;;;;;;48.20;39.80;;;;;9.97;77.21;101754.55;453407;120;385195;-70
2021/03/29 16:44:39;;;;;;;;;52.60;43.50;;;;;9.96;77.32;101759.00;453176;120;385662;-70
2021/03/29 16:45:43;;;;;;;;;51.60;41.60;;;;;9.94;77.36;101752.06;453187;120;386042;-67
2021/03/29 16:46:46;;;;;;;;;51.40;40.20;;;;;9.89;77.77;101757.61;453602;120;387049;-69
2021/03/29 16:47:50;;;;;;;;;55.90;45.60;;;;;9.89;77.77;101757.61;453651;120;385740;-68
2021/03/29 16:48:55;;;;;;;;;50.10;40.20;;;;;9.89;76.27;101756.78;453188;120;386703;-69
2021/03/29 16:49:58;;;;;;;;;48.00;41.20;;;;;9.89;77.02;101757.61;452955;120;386925;-69
2021/03/29 16:51:03;;;;;;;;;51.20;40.40;;;;;9.89;77.02;101757.61;453686;120;386801;-69
2021/03/29 16:52:07;;;;;;;;;53.50;41.30;;;;;9.91;76.71;101760.20;453546;120;387995;-68
2021/03/29 16:53:12;;;;;;;;;52.40;43.70;;;;;9.91;76.71;101760.20;453460;120;384518;-70
2021/03/29 16:54:16;;;;;;;;;56.70;46.40;;;;;9.92;78.81;101769.90;453329;120;385131;-69
2021/03/29 16:55:20;;;;;;;;;57.20;45.70;;;;;9.90;77.37;101767.31;453596;120;385734;-69
2021/03/29 16:56:24;;;;;;;;;60.50;48.40;;;;;9.90;77.37;101767.31;453667;120;384713;-70
2021/03/29 16:57:28;;;;;;;;;63.60;50.30;;;;;9.90;77.99;101774.42;453395;120;385840;-69
2021/03/29 16:58:32;;;;;;;;;59.60;49.40;;;;;9.90;78.40;101777.08;453644;120;385392;-68
2021/03/29 16:59:37;;;;;;;;;61.10;50.50;;;;;9.93;76.93;101776.91;453621;120;393446;-70
2021/03/29 17:00:41;;;;;;;;;68.90;52.90;;;;;9.92;78.21;101780.53;453015;120;394767;-70
2021/03/29 17:01:45;;;;;;;;;64.40;51.30;;;;;9.92;78.21;101780.53;453342;120;386354;-68
2021/03/29 17:02:49;;;;;;;;;68.00;54.50;;;;;9.92;76.36;101777.88;453544;120;393067;-68
2021/03/29 17:03:53;;;;;;;;;70.30;52.60;;;;;9.92;76.36;101777.88;453534;120;388943;-70
2021/03/29 17:04:56;;;;;;;;;64.80;51.50;;;;;9.92;76.52;101778.70;453914;120;387955;-69
2021/03/29 17:06:01;;;;;;;;;68.00;53.20;;;;;9.93;76.00;101779.56;455207;120;387770;-70
2021/03/29 17:07:05;;;;;;;;;66.80;50.80;;;;;9.93;76.00;101779.56;455250;120;387951;-67
2021/03/29 17:08:09;;;;;;;;;63.00;49.90;;;;;9.92;74.50;101778.70;454389;120;385571;-69
2021/03/29 17:09:13;;;;;;;;;59.10;47.90;;;;;9.92;74.50;101778.70;454686;120;386810;-68
2021/03/29 17:10:17;;;;;;;;;63.20;50.30;;;;;9.90;75.09;101771.77;455206;120;388076;-70
2021/03/29 17:11:22;;;;;;;;;58.70;48.20;;;;;9.86;73.94;101770.23;454492;120;393356;-73
2021/03/29 17:12:26;;;;;;;;;60.60;48.50;;;;;9.86;73.94;101770.23;454890;120;393141;-70
2021/03/29 17:13:32;;;;;;;;;60.00;49.70;;;;;9.81;73.97;101774.92;455226;120;384859;-71
2021/03/29 17:14:38;;;;;;;;;62.00;50.60;;;;;9.77;73.93;101770.70;454655;120;385471;-72
2021/03/29 17:15:43;;;;;;;;;64.70;50.60;;;;;9.73;73.96;101766.52;454920;120;387380;-70
2021/03/29 17:16:47;;;;;;;;;65.90;50.90;;;;;9.72;74.65;101768.30;454799;120;388423;-71
2021/03/29 17:17:51;;;;;;;;;64.20;49.60;;;;;9.73;72.91;101761.20;455124;120;390083;-70
2021/03/29 17:18:55;;;;;;;;;58.50;46.70;;;;;9.63;72.93;101771.45;455061;120;385912;-69
2021/03/29 17:20:07;;;;;;;;;57.50;46.20;;;;;9.63;72.93;101771.45;454596;120;393014;-70
2021/03/29 17:21:11;;;;;;;;;62.00;50.60;;;;;9.58;73.29;101763.72;454591;120;387385;-70
2021/03/29 17:22:14;;;;;;;;;60.80;49.20;;;;;9.57;73.81;101766.47;455163;120;386583;-69
2021/03/29 17:23:18;;;;;;;;;60.50;47.10;;;;;9.58;74.10;101768.16;454784;120;385770;-70
2021/03/29 17:24:22;;;;;;;;;59.70;48.20;;;;;9.53;73.24;101762.25;455082;120;393444;-69
2021/03/29 17:25:26;;;;;;;;;63.30;49.20;;;;;9.54;73.72;101771.91;455045;120;394276;-70
2021/03/29 17:26:30;;;;;;;;;62.30;48.20;;;;;9.53;73.30;101770.22;455193;120;387014;-73
2021/03/29 17:27:34;;;;;;;;;59.30;47.50;;;;;9.53;73.30;101770.22;454896;120;384247;-69
2021/03/29 17:28:38;;;;;;;;;60.10;47.90;;;;;9.55;74.08;101782.47;454648;120;386223;-69
2021/03/29 17:29:42;;;;;;;;;61.50;47.80;;;;;9.66;76.23;101797.00;455138;120;385544;-72
2021/03/29 17:30:46;;;;;;;;;62.90;49.50;;;;;9.64;76.76;101790.88;454351;120;394372;-72
2021/03/29 17:31:51;;;;;;;;;69.10;53.70;;;;;9.64;76.76;101790.88;455081;120;387731;-71
2021/03/29 17:32:54;;;;;;;;;72.70;56.30;;;;;9.60;75.35;101803.50;455043;120;388258;-69
2021/03/29 17:33:58;;;;;;;;;62.10;49.40;;;;;9.62;75.33;101806.05;455173;120;385909;-69
2021/03/29 17:35:03;;;;;;;;;62.80;51.30;;;;;9.62;75.33;101806.05;455101;120;386001;-70
2021/03/29 17:36:08;;;;;;;;;64.90;50.80;;;;;9.66;76.82;101811.14;454842;120;387984;-68
2021/03/29 17:37:12;;;;;;;;;62.70;49.40;;;;;9.68;76.84;101813.70;454913;120;386785;-71
2021/03/29 17:38:16;;;;;;;;;63.60;50.80;;;;;9.68;76.67;101811.05;455163;120;386434;-69
2021/03/29 17:39:20;;;;;;;;;63.10;49.50;;;;;9.71;76.94;101813.53;455088;120;387242;-70
2021/03/29 17:40:26;;;;;;;;;61.20;46.80;;;;;9.73;76.50;101819.65;454339;120;396194;-67
2021/03/29 17:41:30;;;;;;;;;60.00;47.50;;;;;9.79;73.68;101822.84;454471;120;392683;-70
2021/03/29 17:42:34;;;;;;;;;59.90;48.70;;;;;9.79;73.68;101822.84;455134;120;386336;-68
2021/03/29 17:43:38;;;;;;;;;61.00;47.90;;;;;9.80;74.46;101828.98;455166;120;387618;-69
2021/03/29 17:44:42;;;;;;;;;59.20;47.60;;;;;9.80;74.46;101828.98;455159;120;384940;-70
2021/03/29 17:45:46;;;;;;;;;59.70;48.30;;;;;9.80;74.08;101827.20;455053;120;385838;-68
2021/03/29 17:46:50;;;;;;;;;58.50;47.40;;;;;9.80;74.14;101835.17;455090;120;386873;-68
2021/03/29 17:47:54;;;;;;;;;63.00;49.90;;;;;9.76;72.15;101835.42;455073;120;386084;-69
2021/03/29 17:48:58;;;;;;;;;61.30;48.80;;;;;9.76;72.15;101835.42;455083;120;386146;-69
2021/03/29 17:50:05;;;;;;;;;58.90;48.30;;;;;9.74;72.17;101837.28;454744;120;384464;-68
2021/03/29 17:51:08;;;;;;;;;61.20;49.00;;;;;9.74;72.17;101837.28;454736;120;393864;-70
2021/03/29 17:52:17;;;;;;;;;62.40;49.50;;;;;9.76;72.36;101841.61;455140;120;386014;-69
2021/03/29 17:53:17;;;;;;;;;66.10;51.80;;;;;9.78;72.79;101831.74;454732;120;387711;-67
2021/03/29 17:54:21;;;;;;;;;64.10;50.00;;;;;9.83;72.49;101836.80;455087;120;388222;-68
2021/03/29 17:55:25;;;;;;;;;63.20;50.50;;;;;9.83;72.49;101836.80;455096;120;386827;-68
2021/03/29 17:56:29;;;;;;;;;66.20;51.20;;;;;9.82;72.87;101843.08;455061;120;389184;-70
2021/03/29 17:57:33;;;;;;;;;64.60;51.60;;;;;9.82;72.87;101843.08;455089;120;386760;-69
2021/03/29 17:58:37;;;;;;;;;63.50;50.90;;;;;9.80;72.89;101842.27;455110;120;385845;-67
2021/03/29 17:59:41;;;;;;;;;66.20;53.00;;;;;9.79;72.63;101845.89;453506;120;387274;-70
2021/03/29 18:00:45;;;;;;;;;75.40;58.20;;;;;9.73;72.92;101851.53;455702;120;387750;-69
2021/03/29 18:01:49;;;;;;;;;71.50;55.90;;;;;9.73;72.98;101851.53;452468;120;387313;-68
2021/03/29 18:02:52;;;;;;;;;73.30;56.70;;;;;9.73;72.98;101851.53;452807;120;387372;-69
2021/03/29 18:03:56;;;;;;;;;73.60;57.60;;;;;9.72;72.38;101847.14;455924;120;387203;-69
2021/03/29 18:05:00;;;;;;;;;72.80;56.90;;;;;9.72;72.38;101847.14;450131;120;393924;-70
2021/03/29 18:06:04;;;;;;;;;66.20;53.50;;;;;9.69;72.39;101844.66;448230;120;386463;-68
2021/03/29 18:07:09;;;;;;;;;72.80;56.80;;;;;9.69;72.64;101844.66;446755;121;388965;-69
2021/03/29 18:08:13;;;;;;;;;70.50;53.90;;;;;9.69;72.64;101844.66;445385;121;387143;-70
2021/03/29 18:09:17;;;;;;;;;72.00;56.70;;;;;9.70;72.85;101851.69;445047;121;393902;-70
2021/03/29 18:10:22;;;;;;;;;73.00;56.20;;;;;9.71;72.89;101845.42;444028;121;388301;-71
2021/03/29 18:11:26;;;;;;;;;75.20;59.20;;;;;9.71;73.02;101846.28;446149;121;385950;-68
2021/03/29 18:12:30;;;;;;;;;76.70;60.90;;;;;9.71;73.07;101848.08;444557;121;386969;-70
2021/03/29 18:13:34;;;;;;;;;70.80;54.80;;;;;9.70;73.32;101851.69;444238;121;387238;-70
2021/03/29 18:14:38;;;;;;;;;73.80;57.50;;;;;9.70;73.32;101851.69;436879;124;386825;-69
2021/03/29 18:15:42;;;;;;;;;69.80;56.60;;;;;9.71;73.76;101853.39;433065;125;385668;-70
2021/03/29 18:16:47;;;;;;;;;75.70;58.50;;;;;9.71;73.56;101848.94;433774;125;387581;-69
2021/03/29 18:17:51;;;;;;;;;75.60;57.80;;;;;9.70;73.69;101851.69;446628;121;388640;-71
2021/03/29 18:18:55;;;;;;;;;77.40;59.20;;;;;9.71;73.46;101850.73;445028;121;387168;-68
2021/03/29 18:20:02;;;;;;;;;76.30;58.30;;;;;9.70;73.65;101852.52;438124;124;390058;-69
2021/03/29 18:21:10;;;;;;;;;76.70;59.00;;;;;9.70;73.65;101852.52;443504;121;396627;-69
2021/03/29 18:22:13;;;;;;;;;72.70;55.40;;;;;9.71;74.62;101848.94;445770;121;388559;-68
2021/03/29 18:23:17;;;;;;;;;75.90;58.90;;;;;9.70;74.68;101849.03;445763;121;389223;-71
2021/03/29 18:24:21;;;;;;;;;71.30;58.50;;;;;9.70;74.68;101849.03;447606;121;386609;-70
2021/03/29 18:25:24;;;;;;;;;74.40;58.90;;;;;9.67;74.81;101852.69;443579;121;387197;-68
2021/03/29 18:26:28;;;;;;;;;75.50;58.60;;;;;9.67;73.72;101849.20;444662;121;386834;-68
2021/03/29 18:27:32;;;;;;;;;78.40;59.60;;;;;9.67;73.72;101849.20;447658;121;388640;-69
2021/03/29 18:28:37;;;;;;;;;78.10;60.00;;;;;9.70;73.37;101854.34;447655;121;394620;-68
2021/03/29 18:29:41;;;;;;;;;80.00;62.90;;;;;9.70;73.40;101857.84;445334;121;394671;-69
2021/03/29 18:30:45;;;;;;;;;77.70;59.40;;;;;9.70;73.40;101857.84;443495;121;388262;-65
2021/03/29 18:31:49;;;;;;;;;80.60;61.10;;;;;9.68;73.12;101864.17;444139;121;389915;-69
2021/03/29 18:32:53;;;;;;;;;78.30;60.10;;;;;9.66;72.79;101863.41;447215;121;395606;-66
2021/03/29 18:33:58;;;;;;;;;78.90;60.80;;;;;9.66;72.79;101863.41;439699;124;388298;-69
2021/03/29 18:35:03;;;;;;;;;83.00;62.20;;;;;9.63;72.84;101864.43;443970;121;387151;-66
2021/03/29 18:36:08;;;;;;;;;73.60;58.20;;;;;9.63;72.84;101864.43;442164;123;385905;-69
2021/03/29 18:37:14;;;;;;;;;76.90;59.80;;;;;9.54;72.94;101857.77;444998;121;388812;-68
2021/03/29 18:38:18;;;;;;;;;76.50;59.80;;;;;9.54;72.94;101857.77;448918;121;387387;-68
2021/03/29 18:39:24;;;;;;;;;77.70;58.60;;;;;9.55;73.39;101864.81;442326;123;395307;-69
2021/03/29 18:40:28;;;;;;;;;77.70;60.30;;;;;9.55;73.39;101864.81;442129;123;387555;-66
2021/03/29 18:41:32;;;;;;;;;76.80;58.90;;;;;9.57;73.26;101862.92;442435;123;387824;-68
2021/03/29 18:42:36;;;;;;;;;71.50;54.30;;;;;9.57;72.74;101865.58;443649;121;388504;-69
2021/03/29 18:43:40;;;;;;;;;77.00;60.30;;;;;9.57;72.74;101865.58;444844;121;387346;-71
2021/03/29 18:44:44;;;;;;;;;79.30;60.80;;;;;9.56;73.00;101871.85;442380;121;388098;-69
2021/03/29 18:45:47;;;;;;;;;79.20;61.30;;;;;9.57;73.08;101862.09;445325;121;387325;-68
2021/03/29 18:46:51;;;;;;;;;80.90;61.00;;;;;9.57;73.08;101862.09;445833;121;389305;-70
2021/03/29 18:47:55;;;;;;;;;86.30;63.80;;;;;9.54;73.31;101865.73;445800;121;389993;-70
2021/03/29 18:48:59;;;;;;;;;86.40;68.60;;;;;9.54;73.31;101865.73;444893;121;389055;-68
2021/03/29 18:50:05;;;;;;;;;86.10;70.00;;;;;9.54;73.09;101863.08;441990;121;389456;-69
2021/03/29 18:51:09;;;;;;;;;92.10;76.50;;;;;9.53;73.13;101864.05;442061;123;392778;-70
2021/03/29 18:52:13;;;;;;;;;89.30;75.10;;;;;9.53;73.13;101864.05;441968;123;389649;-70
2021/03/29 18:53:17;;;;;;;;;94.40;76.70;;;;;9.49;73.08;101858.95;442177;123;392436;-69
2021/03/29 18:54:21;;;;;;;;;90.70;75.20;;;;;9.44;73.16;101867.17;441786;123;391831;-69
2021/03/29 18:55:28;;;;;;;;;85.60;69.50;;;;;9.44;73.16;101867.17;442299;123;390204;-74
2021/03/29 18:56:40;;;;;;;;;87.40;71.40;;;;;9.44;73.33;101869.83;441927;123;389554;-74
2021/03/29 18:57:44;;;;;;;;;85.90;66.90;;;;;9.43;73.52;101865.44;441977;123;388507;-74
2021/03/29 18:58:48;;;;;;;;;78.80;63.60;;;;;9.43;73.29;101865.44;442264;123;386988;-72
2021/03/29 18:59:52;;;;;;;;;91.00;76.00;;;;;9.43;73.29;101865.44;442346;123;391426;-73
2021/03/29 19:00:56;;;;;;;;;87.70;67.90;;;;;9.42;73.42;101870.81;442192;123;390786;-72
2021/03/29 19:02:01;;;;;;;;;89.60;72.70;;;;;9.42;73.42;101870.81;442188;123;391401;-73
2021/03/29 19:03:05;;;;;;;;;93.80;77.30;;;;;9.36;73.65;101868.47;441982;123;391449;-72
2021/03/29 19:04:09;;;;;;;;;90.90;77.80;;;;;9.28;74.60;101871.53;441992;123;391145;-73
2021/03/29 19:05:14;;;;;;;;;93.50;78.50;;;;;9.28;74.60;101871.53;441395;123;390599;-72
2021/03/29 19:06:18;;;;;;;;;94.80;77.50;;;;;9.25;74.67;101871.69;439675;123;399451;-72
2021/03/29 19:07:23;;;;;;;;;81.10;61.20;;;;;9.29;75.02;101870.57;444049;122;387241;-73
2021/03/29 19:08:29;;;;;;;;;88.20;72.00;;;;;9.30;74.10;101874.95;447382;122;396123;-73
2021/03/29 19:09:32;;;;;;;;;86.30;67.70;;;;;9.30;74.10;101874.95;447560;122;389923;-73
2021/03/29 19:10:37;;;;;;;;;91.20;72.60;;;;;9.28;74.60;101871.53;447525;122;390623;-73
2021/03/29 19:11:41;;;;;;;;;81.40;63.50;;;;;9.29;74.47;101873.23;447610;122;387397;-72
2021/03/29 19:12:46;;;;;;;;;89.60;70.80;;;;;9.30;74.12;101872.30;447565;122;391815;-73
2021/03/29 19:13:50;;;;;;;;;90.90;76.80;;;;;9.30;74.08;101877.61;447542;122;391392;-73
2021/03/29 19:14:54;;;;;;;;;91.30;67.70;;;;;9.30;73.97;101880.27;447343;122;391827;-73
2021/03/29 19:15:58;;;;;;;;;91.00;73.40;;;;;9.34;73.96;101875.66;447815;122;391207;-72
2021/03/29 19:17:02;;;;;;;;;90.90;79.40;;;;;9.34;74.01;101873.01;447813;122;390165;-72
2021/03/29 19:18:07;;;;;;;;;89.10;73.90;;;;;9.34;74.01;101873.01;447584;122;390699;-73
2021/03/29 19:19:11;;;;;;;;;86.90;68.60;;;;;9.24;74.31;101869.95;447506;122;398600;-73
2021/03/29 19:20:17;;;;;;;;;91.50;73.30;;;;;9.24;74.31;101869.95;447532;122;391312;-73
2021/03/29 19:21:22;;;;;;;;;92.20;76.60;;;;;9.25;74.53;101866.38;447325;122;392809;-72
2021/03/29 19:22:26;;;;;;;;;74.20;55.30;;;;;9.28;74.47;101871.53;447597;122;388944;-73
2021/03/29 19:23:30;;;;;;;;;87.10;72.70;;;;;9.31;73.88;101868.72;447795;122;392932;-71
2021/03/29 19:24:35;;;;;;;;;87.20;69.70;;;;;9.31;73.88;101868.72;447872;122;392143;-72
2021/03/29 19:25:39;;;;;;;;;79.50;66.40;;;;;9.32;73.90;101867.76;447612;122;388002;-73
2021/03/29 19:26:47;;;;;;;;;88.80;71.70;;;;;9.35;74.62;101866.77;447666;122;389990;-73
2021/03/29 19:27:51;;;;;;;;;84.40;67.10;;;;;9.37;74.54;101867.55;447650;122;388266;-74
2021/03/29 19:28:55;;;;;;;;;105.10;88.40;;;;;9.39;75.05;101874.48;447823;122;390429;-74
2021/03/29 19:29:59;;;;;;;;;90.30;76.80;;;;;9.41;74.77;101872.61;447375;122;391490;-74
2021/03/29 19:31:03;;;;;;;;;90.30;76.90;;;;;9.42;75.04;101869.02;447804;122;390910;-73
2021/03/29 19:32:07;;;;;;;;;84.90;66.90;;;;;9.42;74.55;101868.16;447862;122;388903;-72
2021/03/29 19:33:11;;;;;;;;;88.20;70.50;;;;;9.41;74.64;101875.26;432088;126;390382;-72
2021/03/29 19:34:15;;;;;;;;;86.60;71.10;;;;;9.41;74.64;101875.26;426252;128;388101;-73
2021/03/29 19:35:19;;;;;;;;;83.50;63.90;;;;;9.38;74.37;101872.76;439249;124;389165;-72
2021/03/29 19:36:24;;;;;;;;;84.40;66.60;;;;;9.35;74.18;101877.39;432536;124;389055;-73
2021/03/29 19:37:28;;;;;;;;;75.10;58.90;;;;;9.35;74.18;101877.39;447231;122;395578;-73
2021/03/29 19:38:33;;;;;;;;;79.00;60.20;;;;;9.23;73.89;101872.67;447902;122;388429;-71
2021/03/29 19:39:37;;;;;;;;;73.80;56.90;;;;;9.18;74.56;101880.02;447124;122;394243;-73
2021/03/29 19:40:41;;;;;;;;;68.10;54.00;;;;;8.97;75.16;101874.81;447883;122;393858;-72
2021/03/29 19:41:45;;;;;;;;;70.00;56.00;;;;;8.88;76.13;101882.36;447885;122;387214;-74
2021/03/29 19:42:48;;;;;;;;;65.90;52.10;;;;;8.88;76.13;101882.36;447862;122;387139;-73
2021/03/29 19:43:52;;;;;;;;;67.20;53.60;;;;;8.73;76.87;101876.00;447843;122;390642;-75
2021/03/29 19:44:56;;;;;;;;;69.40;54.60;;;;;8.64;77.49;101878.23;447895;122;386791;-73
2021/03/29 19:46:00;;;;;;;;;67.10;54.70;;;;;8.66;77.14;101887.83;447813;122;393723;-73
2021/03/29 19:47:05;;;;;;;;;65.30;51.90;;;;;8.52;78.48;101889.42;447884;122;393301;-74
2021/03/29 19:48:09;;;;;;;;;70.40;54.80;;;;;8.52;78.48;101889.42;447261;122;386732;-73
2021/03/29 19:49:13;;;;;;;;;67.40;53.00;;;;;8.50;78.29;101889.47;447222;122;388430;-73
2021/03/29 19:50:17;;;;;;;;;72.30;56.50;;;;;8.54;78.50;101890.20;447851;122;388109;-72
2021/03/29 19:51:21;;;;;;;;;69.50;54.60;;;;;8.52;78.33;101887.59;447957;122;387655;-72
2021/03/29 19:52:25;;;;;;;;;67.40;50.60;;;;;8.52;78.33;101887.59;447836;122;387795;-76
2021/03/29 19:53:29;;;;;;;;;69.10;54.00;;;;;8.59;78.02;101893.48;447852;122;385728;-75
2021/03/29 19:54:33;;;;;;;;;70.10;55.10;;;;;8.55;78.02;101887.48;447889;122;387300;-72
2021/03/29 19:55:37;;;;;;;;;69.30;53.70;;;;;8.55;78.02;101887.48;447886;122;387399;-73
2021/03/29 19:56:41;;;;;;;;;71.10;56.00;;;;;8.58;77.91;101889.12;447860;122;387216;-72
2021/03/29 19:57:45;;;;;;;;;72.80;55.50;;;;;8.63;77.63;101885.32;447562;122;387324;-73
2021/03/29 19:58:49;;;;;;;;;70.00;55.90;;;;;8.63;77.63;101885.32;447803;122;394492;-73
2021/03/29 19:59:53;;;;;;;;;75.00;56.60;;;;;8.72;76.98;101886.67;447891;122;387836;-74
2021/03/29 20:00:59;;;;;;;;;77.40;58.80;;;;;8.72;76.98;101886.67;447137;122;388309;-71
2021/03/29 20:02:05;;;;;;;;;86.09;67.82;;;;;8.76;77.27;101889.12;447582;122;386614;-71
2021/03/29 20:03:10;;;;;;;;;76.00;58.50;;;;;8.81;77.38;101891.53;447629;122;387846;-71
2021/03/29 20:04:20;;;;;;;;;117.20;98.30;;;;;8.84;76.89;101892.25;447493;122;393478;-73
2021/03/29 20:05:23;;;;;;;;;79.30;61.50;;;;;8.84;76.89;101892.25;446303;122;389319;-72
2021/03/29 20:06:33;;;;;;;;;75.50;58.50;;;;;8.89;76.71;101889.39;447310;122;393306;-71
2021/03/29 20:07:39;;;;;;;;;77.80;60.60;;;;;8.89;76.76;101892.05;440646;122;386172;-73
2021/03/29 20:08:41;;;;;;;;;76.80;59.70;;;;;8.89;76.76;101892.05;439715;124;387685;-71
2021/03/29 20:09:45;;;;;;;;;78.70;61.50;;;;;8.89;76.62;101892.91;439998;124;386706;-71
2021/03/29 20:10:49;;;;;;;;;79.90;62.30;;;;;8.95;76.16;101889.09;432796;126;392776;-73
2021/03/29 20:11:53;;;;;;;;;79.60;62.40;;;;;8.95;76.16;101889.09;439709;124;393987;-72
2021/03/29 20:12:58;;;;;;;;;78.60;60.80;;;;;8.95;76.86;101889.09;432851;126;388637;-73
2021/03/29 20:14:02;;;;;;;;;79.10;61.10;;;;;8.96;76.21;101891.69;440034;124;387993;-74
2021/03/29 20:15:08;;;;;;;;;81.50;63.40;;;;;8.96;76.21;101891.69;440218;124;393417;-73
2021/03/29 20:16:13;;;;;;;;;84.00;64.00;;;;;8.95;76.20;101883.78;432534;126;395237;-72
2021/03/29 20:17:16;;;;;;;;;79.10;61.20;;;;;8.94;76.88;101890.88;440222;124;388960;-71
2021/03/29 20:18:20;;;;;;;;;82.80;63.50;;;;;8.94;76.88;101890.88;439815;124;388726;-72
2021/03/29 20:19:25;;;;;;;;;63.20;50.10;;;;;8.92;76.65;101889.24;440297;124;392831;-72
2021/03/29 20:20:29;;;;;;;;;84.70;61.60;;;;;8.92;76.65;101889.24;439860;124;388836;-72
2021/03/29 20:21:33;;;;;;;;;83.20;62.40;;;;;8.93;76.22;101886.50;440317;124;388521;-71
2021/03/29 20:22:37;;;;;;;;;79.30;61.90;;;;;8.93;76.22;101886.50;440221;124;387222;-71
2021/03/29 20:23:42;;;;;;;;;80.60;62.30;;;;;8.93;75.38;101881.19;439795;124;393086;-73
2021/03/29 20:24:46;;;;;;;;;75.30;59.60;;;;;8.90;77.10;101883.16;439937;124;394122;-72
2021/03/29 20:25:50;;;;;;;;;87.00;68.60;;;;;8.87;76.09;101884.14;440214;124;390272;-72
2021/03/29 20:26:55;;;;;;;;;81.30;65.60;;;;;8.87;76.09;101884.14;432233;126;386356;-73
2021/03/29 20:27:59;;;;;;;;;82.80;62.90;;;;;8.87;75.77;101883.31;439997;124;387056;-71
2021/03/29 20:29:03;;;;;;;;;69.80;54.90;;;;;8.85;75.48;101890.47;439788;124;387654;-72
2021/03/29 20:30:09;;;;;;;;;76.20;58.80;;;;;8.82;75.56;101888.83;432857;126;386892;-71
2021/03/29 20:31:13;;;;;;;;;84.10;63.70;;;;;8.82;75.56;101888.83;439965;124;395490;-72
2021/03/29 20:32:17;;;;;;;;;102.50;91.90;;;;;8.76;76.65;101894.42;432768;126;391342;-74
2021/03/29 20:33:21;;;;;;;;;127.60;107.90;;;;;8.76;76.65;101894.42;439527;124;394941;-72
2021/03/29 20:34:27;;;;;;;;;133.50;117.90;;;;;8.74;76.85;101898.09;432698;126;394680;-73
2021/03/29 20:35:31;;;;;;;;;116.00;101.70;;;;;8.74;77.02;101900.74;439807;124;399762;-72
2021/03/29 20:36:36;;;;;;;;;104.20;85.40;;;;;8.74;76.52;101900.74;432121;126;393119;-72
2021/03/29 20:37:40;;;;;;;;;89.30;77.50;;;;;8.79;76.27;101902.23;439963;124;388988;-73
2021/03/29 20:38:44;;;;;;;;;79.70;59.80;;;;;8.72;76.31;101903.45;440229;124;389324;-71
2021/03/29 20:39:48;;;;;;;;;79.60;61.40;;;;;8.72;76.31;101903.45;440233;124;388789;-72
2021/03/29 20:40:52;;;;;;;;;82.70;62.90;;;;;8.73;76.52;101909.62;439775;124;387746;-71
2021/03/29 20:41:55;;;;;;;;;80.90;62.70;;;;;8.74;76.25;101895.44;440159;124;394732;-71
2021/03/29 20:42:59;;;;;;;;;74.80;58.90;;;;;8.74;76.29;101906.88;439786;124;386891;-72
2021/03/29 20:44:04;;;;;;;;;78.00;59.90;;;;;8.74;76.29;101906.88;432784;126;394676;-72
2021/03/29 20:45:10;;;;;;;;;60.40;46.50;;;;;8.74;76.29;101914.84;439680;124;386150;-71
2021/03/29 20:46:14;;;;;;;;;75.20;57.20;;;;;8.75;76.01;101907.74;439317;124;388965;-72
2021/03/29 20:47:18;;;;;;;;;73.60;56.70;;;;;8.75;75.89;101908.61;432785;126;386975;-73
2021/03/29 20:48:22;;;;;;;;;71.90;54.70;;;;;8.76;75.85;101914.78;439591;124;387050;-73
2021/03/29 20:49:26;;;;;;;;;69.50;54.60;;;;;8.76;75.85;101914.78;440295;124;388189;-74
2021/03/29 20:50:30;;;;;;;;;69.60;54.70;;;;;8.72;75.70;101921.16;439849;124;386418;-72
2021/03/29 20:51:34;;;;;;;;;70.90;55.00;;;;;8.67;76.10;101923.17;440274;124;387683;-71
2021/03/29 20:52:41;;;;;;;;;66.60;53.50;;;;;8.67;75.94;101920.52;439559;124;386991;-72
2021/03/29 20:53:48;;;;;;;;;70.80;54.50;;;;;8.64;76.12;101918.02;432516;126;387361;-71
2021/03/29 20:54:51;;;;;;;;;69.30;53.90;;;;;8.64;76.12;101918.02;440244;124;386273;-72
2021/03/29 20:55:55;;;;;;;;;69.50;54.60;;;;;8.61;76.21;101910.20;439947;124;386856;-72
2021/03/29 20:56:59;;;;;;;;;67.80;52.40;;;;;8.50;76.52;101915.98;424975;127;393956;-73